createdAt,value
2019-02-24T00:01:41.944Z,14.50
2019-02-24T00:04:12.709Z,14.20
2019-02-24T00:06:43.482Z,14.90
2019-02-24T00:09:14.247Z,13.43
2019-02-24T00:11:45.026Z,12.60
2019-02-24T00:14:15.791Z,13.73
2019-02-24T00:16:46.551Z,17.87
2019-02-24T00:19:17.320Z,13.40
2019-02-24T00:21:48.077Z,14.07
2019-02-24T00:24:18.843Z,13.87
2019-02-24T00:26:49.614Z,10.90
2019-02-24T00:29:20.379Z,12.60
2019-02-24T00:31:51.133Z,10.23
2019-02-24T00:34:21.898Z,12.67
2019-02-24T00:36:52.671Z,11.50
2019-02-24T00:39:23.462Z,10.73
2019-02-24T00:41:54.269Z,13.33
2019-02-24T00:44:25.029Z,13.30
2019-02-24T00:46:55.786Z,10.67
2019-02-24T00:49:26.550Z,11.33
2019-02-24T00:51:57.307Z,14.57
2019-02-24T00:54:28.198Z,12.80
2019-02-24T00:56:58.958Z,10.10
2019-02-24T00:59:29.732Z,12.10
2019-02-24T01:02:00.488Z,12.47
2019-02-24T01:04:31.250Z,10.57
2019-02-24T01:07:02.122Z,13.67
2019-02-24T01:09:32.887Z,9.87
2019-02-24T01:12:03.644Z,8.70
2019-02-24T01:14:34.433Z,11.27
2019-02-24T01:17:05.499Z,10.87
2019-02-24T01:19:36.261Z,9.75
2019-02-24T01:22:07.014Z,13.77
2019-02-24T01:24:37.807Z,11.37
2019-02-24T01:27:08.566Z,7.80
2019-02-24T01:29:39.330Z,11.50
2019-02-24T01:32:10.087Z,8.97
2019-02-24T01:34:40.858Z,10.03
2019-02-24T01:37:11.611Z,10.67
2019-02-24T01:39:42.378Z,13.33
2019-02-24T01:42:13.130Z,11.13
2019-02-24T01:44:43.894Z,10.83
2019-02-24T01:47:14.670Z,12.47
2019-02-24T01:49:45.453Z,8.87
2019-02-24T01:52:16.205Z,11.07
2019-02-24T01:54:46.990Z,9.40
2019-02-24T01:57:17.751Z,9.80
2019-02-24T01:59:48.521Z,13.47
2019-02-24T02:02:19.298Z,9.83
2019-02-24T02:04:50.136Z,11.07
2019-02-24T02:07:20.894Z,10.17
2019-02-24T02:09:51.677Z,10.03
2019-02-24T02:12:22.474Z,10.60
2019-02-24T02:14:53.200Z,9.50
2019-02-24T02:17:23.962Z,9.30
2019-02-24T02:19:54.742Z,9.97
2019-02-24T02:22:25.504Z,12.57
2019-02-24T02:24:56.309Z,9.47
2019-02-24T02:27:27.034Z,10.00
2019-02-24T02:29:57.811Z,9.33
2019-02-24T02:32:28.565Z,9.47
2019-02-24T02:34:59.354Z,10.00
2019-02-24T02:37:30.112Z,8.80
2019-02-24T02:40:01.299Z,10.13
2019-02-24T02:42:32.055Z,11.48
2019-02-24T02:45:05.348Z,8.10
2019-02-24T02:47:36.115Z,9.75
2019-02-24T02:50:06.869Z,10.63
2019-02-24T02:52:37.632Z,9.63
2019-02-24T02:55:08.399Z,9.73
2019-02-24T02:57:39.227Z,9.50
2019-02-24T03:00:28.102Z,8.90
2019-02-24T03:02:58.855Z,9.25
2019-02-24T03:05:29.619Z,9.83
2019-02-24T03:08:02.279Z,8.93
2019-02-24T03:10:33.054Z,10.65
2019-02-24T03:13:03.818Z,9.90
2019-02-24T03:15:34.587Z,8.87
2019-02-24T03:18:05.347Z,10.23
2019-02-24T03:20:36.114Z,8.93
2019-02-24T03:23:06.886Z,15.70
2019-02-24T03:25:37.670Z,9.37
2019-02-24T03:28:08.509Z,9.97
2019-02-24T03:30:39.277Z,9.00
2019-02-24T03:33:10.044Z,8.70
2019-02-24T03:35:40.800Z,10.90
2019-02-24T03:38:11.545Z,14.20
2019-02-24T03:40:42.319Z,13.23
2019-02-24T03:43:13.181Z,12.97
2019-02-24T03:45:43.951Z,8.60
2019-02-24T03:48:14.767Z,8.17
2019-02-24T03:50:45.473Z,10.07
2019-02-24T03:53:16.246Z,8.93
2019-02-24T03:55:47.027Z,11.40
2019-02-24T03:58:17.797Z,7.63
2019-02-24T04:00:48.610Z,11.30
2019-02-24T04:03:19.379Z,8.87
2019-02-24T04:05:50.142Z,10.30
2019-02-24T04:08:20.902Z,8.27
2019-02-24T04:10:51.661Z,11.33
2019-02-24T04:13:22.448Z,9.40
2019-02-24T04:15:53.442Z,7.23
2019-02-24T04:18:24.231Z,10.78
2019-02-24T04:20:55.045Z,7.60
2019-02-24T04:23:25.791Z,6.67
2019-02-24T04:25:56.563Z,9.07
2019-02-24T04:28:27.325Z,8.10
2019-02-24T04:30:58.086Z,8.20
2019-02-24T04:33:28.866Z,6.70
2019-02-24T04:35:59.617Z,8.47
2019-02-24T04:38:30.385Z,7.40
2019-02-24T04:41:01.140Z,8.87
2019-02-24T04:43:31.902Z,6.47
2019-02-24T04:46:02.689Z,6.73
2019-02-24T04:48:33.438Z,6.57
2019-02-24T04:51:04.199Z,7.50
2019-02-24T04:53:34.962Z,7.10
2019-02-24T04:56:05.715Z,8.07
2019-02-24T04:58:36.498Z,7.23
2019-02-24T05:01:07.272Z,9.23
2019-02-24T05:03:38.061Z,6.80
2019-02-24T05:06:08.894Z,8.87
2019-02-24T05:08:39.655Z,8.23
2019-02-24T05:11:10.422Z,8.67
2019-02-24T05:13:41.179Z,9.30
2019-02-24T05:16:11.945Z,9.37
2019-02-24T05:18:42.705Z,7.53
2019-02-24T05:21:13.454Z,7.90
2019-02-24T05:23:44.223Z,9.23
2019-02-24T05:26:14.986Z,12.80
2019-02-24T05:28:45.750Z,7.43
2019-02-24T05:31:16.501Z,9.67
2019-02-24T05:33:47.284Z,6.30
2019-02-24T05:36:18.042Z,7.70
2019-02-24T05:38:48.821Z,8.53
2019-02-24T05:41:19.602Z,8.97
2019-02-24T05:43:50.369Z,9.20
2019-02-24T05:46:21.141Z,6.23
2019-02-24T05:48:51.902Z,6.77
2019-02-24T05:51:22.653Z,8.83
2019-02-24T05:53:53.415Z,6.17
2019-02-24T05:56:24.176Z,8.37
2019-02-24T05:58:54.944Z,7.87
2019-02-24T06:01:25.714Z,5.53
2019-02-24T06:03:56.482Z,5.17
2019-02-24T06:06:27.252Z,8.70
2019-02-24T06:08:58.015Z,8.10
2019-02-24T06:11:28.771Z,6.67
2019-02-24T06:13:59.546Z,6.93
2019-02-24T06:16:30.305Z,6.80
2019-02-24T06:19:01.060Z,7.47
2019-02-24T06:21:31.814Z,7.60
2019-02-24T06:24:02.578Z,8.43
2019-02-24T06:26:33.334Z,10.10
2019-02-24T06:29:04.094Z,8.80
2019-02-24T06:31:34.868Z,8.50
2019-02-24T06:34:05.653Z,5.90
2019-02-24T06:36:36.423Z,6.33
2019-02-24T06:39:07.203Z,8.03
2019-02-24T06:41:37.974Z,7.03
2019-02-24T06:44:09.061Z,9.93
2019-02-24T06:46:39.819Z,7.95
2019-02-24T06:49:10.588Z,7.27
2019-02-24T06:51:41.338Z,6.93
2019-02-24T06:54:12.107Z,7.87
2019-02-24T06:56:42.860Z,8.27
2019-02-24T06:59:13.623Z,9.50
2019-02-24T07:01:44.392Z,7.50
2019-02-24T07:04:15.159Z,7.37
2019-02-24T07:06:45.926Z,7.87
2019-02-24T07:09:16.693Z,8.60
2019-02-24T07:11:47.450Z,7.23
2019-02-24T07:14:18.216Z,6.93
2019-02-24T07:16:48.967Z,7.67
2019-02-24T07:19:19.732Z,7.90
2019-02-24T07:21:50.490Z,7.43
2019-02-24T07:24:21.623Z,8.10
2019-02-24T07:26:52.442Z,7.15
2019-02-24T07:29:23.221Z,8.90
2019-02-24T07:31:53.993Z,7.10
2019-02-24T07:34:24.777Z,7.10
2019-02-24T07:36:55.532Z,7.03
2019-02-24T07:39:26.321Z,6.63
2019-02-24T07:41:57.091Z,8.40
2019-02-24T07:44:27.879Z,6.10
2019-02-24T07:46:58.730Z,7.93
2019-02-24T07:49:29.509Z,10.33
2019-02-24T07:52:00.292Z,7.17
2019-02-24T07:54:31.067Z,7.77
2019-02-24T07:57:01.834Z,7.50
2019-02-24T07:59:32.616Z,5.70
2019-02-24T08:02:03.375Z,8.70
2019-02-24T08:04:34.145Z,10.43
2019-02-24T08:07:04.901Z,6.73
2019-02-24T08:09:35.775Z,7.00
2019-02-24T08:12:06.527Z,6.77
2019-02-24T08:14:37.293Z,7.57
2019-02-24T08:17:08.046Z,9.40
2019-02-24T08:19:38.845Z,8.60
2019-02-24T08:22:09.617Z,6.77
2019-02-24T08:24:40.397Z,10.30
2019-02-24T08:27:11.151Z,7.03
2019-02-24T08:29:41.906Z,8.30
2019-02-24T08:32:12.666Z,8.07
2019-02-24T08:34:43.424Z,8.80
2019-02-24T08:37:14.236Z,8.60
2019-02-24T08:39:45.005Z,6.67
2019-02-24T08:42:15.765Z,10.03
2019-02-24T08:44:46.540Z,9.50
2019-02-24T08:47:17.307Z,5.80
2019-02-24T08:49:48.081Z,7.83
2019-02-24T08:52:18.838Z,6.33
2019-02-24T08:54:49.590Z,4.93
2019-02-24T08:57:20.618Z,5.23
2019-02-24T08:59:51.383Z,4.65
2019-02-24T09:02:22.152Z,6.00
2019-02-24T09:04:52.906Z,5.20
2019-02-24T09:07:23.685Z,5.00
2019-02-24T09:09:54.437Z,5.67
2019-02-24T09:12:25.249Z,5.80
2019-02-24T09:14:56.014Z,4.93
2019-02-24T09:17:26.792Z,6.27
2019-02-24T09:19:57.572Z,4.93
2019-02-24T09:22:28.332Z,6.70
2019-02-24T09:24:59.106Z,4.13
2019-02-24T09:27:29.887Z,5.53
2019-02-24T09:30:00.669Z,5.87
2019-02-24T09:32:31.437Z,7.83
2019-02-24T09:35:02.614Z,7.90
2019-02-24T09:37:33.395Z,6.15
2019-02-24T09:40:07.973Z,6.80
2019-02-24T09:42:38.743Z,6.25
2019-02-24T09:45:10.826Z,8.53
2019-02-24T09:47:46.771Z,5.42
2019-02-24T09:50:14.280Z,4.92
2019-02-24T09:52:45.062Z,4.47
2019-02-24T09:55:15.837Z,6.57
2019-02-24T09:57:46.620Z,6.20
2019-02-24T10:00:17.418Z,5.47
2019-02-24T10:02:48.202Z,8.60
2019-02-24T10:05:18.978Z,5.53
2019-02-24T10:07:49.746Z,5.27
2019-02-24T10:10:20.503Z,6.37
2019-02-24T10:12:51.266Z,7.33
2019-02-24T10:15:22.022Z,6.77
2019-02-24T10:17:52.785Z,5.00
2019-02-24T10:20:23.586Z,5.10
2019-02-24T10:22:54.365Z,6.90
2019-02-24T10:25:25.137Z,5.40
2019-02-24T10:27:55.927Z,5.47
2019-02-24T10:30:26.688Z,7.60
2019-02-24T10:32:57.458Z,8.37
2019-02-24T10:35:28.213Z,5.13
2019-02-24T10:37:58.980Z,5.00
2019-02-24T10:40:29.743Z,5.00
2019-02-24T10:43:00.510Z,6.10
2019-02-24T10:45:31.293Z,5.50
2019-02-24T10:48:02.079Z,5.57
2019-02-24T10:50:32.832Z,4.50
2019-02-24T10:53:03.590Z,5.87
2019-02-24T10:55:34.365Z,5.07
2019-02-24T10:58:05.121Z,5.23
2019-02-24T11:00:35.903Z,5.57
2019-02-24T11:03:06.657Z,7.80
2019-02-24T11:05:37.435Z,4.23
2019-02-24T11:08:08.193Z,3.90
2019-02-24T11:10:38.959Z,4.87
2019-02-24T11:13:09.711Z,5.00
2019-02-24T11:15:40.471Z,5.50
2019-02-24T11:18:11.223Z,5.57
2019-02-24T11:20:42.029Z,7.20
2019-02-24T11:23:12.783Z,6.40
2019-02-24T11:25:43.546Z,5.07
2019-02-24T11:28:14.327Z,5.00
2019-02-24T11:30:45.109Z,6.27
2019-02-24T11:33:15.889Z,4.50
2019-02-24T11:35:46.650Z,5.53
2019-02-24T11:38:17.402Z,4.17
2019-02-24T11:40:48.189Z,4.80
2019-02-24T11:54:01.036Z,4.47
2019-02-24T11:56:31.798Z,7.13
2019-02-24T11:59:02.563Z,7.47
2019-02-24T12:01:33.336Z,6.60
2019-02-24T12:04:04.114Z,5.43
2019-02-24T12:06:34.865Z,6.77
2019-02-24T12:09:05.638Z,7.37
2019-02-24T12:11:36.396Z,8.67
2019-02-24T12:14:07.205Z,5.20
2019-02-24T12:16:37.971Z,5.20
2019-02-24T12:19:08.751Z,5.50
2019-02-24T12:21:39.511Z,7.57
2019-02-24T12:24:10.264Z,5.83
2019-02-24T12:26:41.047Z,6.17
2019-02-24T12:29:11.806Z,5.37
2019-02-24T12:31:42.577Z,6.50
2019-02-24T12:34:13.334Z,6.17
2019-02-24T12:36:44.098Z,4.00
2019-02-24T12:39:14.859Z,3.80
2019-02-24T12:41:45.639Z,5.70
2019-02-24T12:44:16.395Z,5.30
2019-02-24T12:46:47.161Z,6.90
2019-02-24T12:49:17.922Z,5.63
2019-02-24T12:51:48.690Z,5.17
2019-02-24T12:54:19.450Z,5.83
2019-02-24T12:56:50.617Z,6.73
2019-02-24T12:59:21.377Z,5.55
2019-02-24T13:01:52.162Z,6.00
2019-02-24T13:04:22.929Z,5.40
2019-02-24T13:06:53.701Z,6.53
2019-02-24T13:09:24.465Z,5.83
2019-02-24T13:11:55.233Z,5.43
2019-02-24T13:14:26.095Z,6.73
2019-02-24T13:16:56.865Z,5.40
2019-02-24T13:19:27.625Z,4.37
2019-02-24T13:21:58.394Z,5.17
2019-02-24T13:24:29.151Z,5.33
2019-02-24T13:26:59.924Z,5.97
2019-02-24T13:29:30.681Z,5.77
2019-02-24T13:32:01.452Z,5.00
2019-02-24T13:34:32.219Z,5.80
2019-02-24T13:37:02.970Z,5.70
2019-02-24T13:39:33.729Z,4.50
2019-02-24T13:42:04.597Z,3.67
2019-02-24T13:44:35.384Z,5.30
2019-02-24T13:47:06.167Z,6.13
2019-02-24T13:49:36.919Z,8.23
2019-02-24T13:52:07.697Z,5.77
2019-02-24T13:54:38.461Z,6.13
2019-02-24T13:57:09.225Z,6.57
2019-02-24T13:59:39.982Z,6.33
2019-02-24T14:02:10.762Z,6.53
2019-02-24T14:04:41.526Z,6.93
2019-02-24T14:07:12.291Z,7.00
2019-02-24T14:09:43.055Z,5.00
2019-02-24T14:12:13.826Z,4.80
2019-02-24T14:14:49.099Z,5.90
2019-02-24T14:17:17.291Z,4.97
2019-02-24T14:19:48.047Z,6.33
2019-02-24T14:22:18.815Z,5.27
2019-02-24T14:24:49.582Z,6.30
2019-02-24T14:27:20.353Z,6.80
2019-02-24T14:29:51.142Z,7.20
2019-02-24T14:32:21.905Z,6.20
2019-02-24T14:34:52.670Z,8.03
2019-02-24T14:37:24.229Z,7.07
2019-02-24T14:39:55.035Z,6.55
2019-02-24T14:42:25.866Z,6.47
2019-02-24T14:44:56.762Z,5.30
2019-02-24T14:47:27.539Z,4.83
2019-02-24T14:49:58.297Z,6.33
2019-02-24T14:52:29.064Z,5.83
2019-02-24T14:54:59.831Z,4.67
2019-02-24T14:57:30.599Z,8.50
2019-02-24T15:00:02.670Z,5.00
2019-02-24T15:02:41.958Z,5.33
2019-02-24T15:05:08.823Z,5.65
2019-02-24T15:07:39.594Z,4.95
2019-02-24T15:10:21.814Z,5.43
2019-02-24T15:12:52.584Z,5.40
2019-02-24T15:15:33.119Z,4.80
2019-02-24T15:18:01.983Z,6.40
2019-02-24T15:20:32.774Z,6.63
2019-02-24T15:23:03.558Z,5.90
2019-02-24T15:25:34.307Z,8.33
2019-02-24T15:28:05.112Z,7.50
2019-02-24T15:30:37.492Z,5.60
2019-02-24T15:33:08.272Z,6.72
2019-02-24T15:35:39.020Z,6.53
2019-02-24T15:38:09.791Z,7.80
2019-02-24T15:40:40.811Z,5.50
2019-02-24T15:43:11.582Z,7.05
2019-02-24T15:45:42.337Z,6.60
2019-02-24T15:48:13.159Z,5.93
2019-02-24T15:50:44.249Z,6.33
2019-02-24T15:53:15.088Z,4.87
2019-02-24T15:55:45.925Z,5.60
2019-02-24T15:58:17.936Z,5.90
2019-02-24T16:00:48.972Z,9.63
2019-02-24T16:03:19.782Z,4.80
2019-02-24T16:05:50.538Z,6.27
2019-02-24T16:08:21.308Z,7.00
2019-02-24T16:10:52.069Z,9.57
2019-02-24T16:13:22.833Z,7.63
2019-02-24T16:15:53.626Z,7.97
2019-02-24T16:18:24.397Z,7.80
2019-02-24T16:20:55.217Z,7.40
2019-02-24T16:23:25.995Z,9.60
2019-02-24T16:25:56.785Z,7.20
2019-02-24T16:28:27.550Z,10.97
2019-02-24T16:30:58.342Z,7.70
2019-02-24T16:33:29.237Z,5.60
2019-02-24T16:35:59.993Z,10.80
2019-02-24T16:38:30.758Z,6.03
2019-02-24T16:41:01.516Z,6.23
2019-02-24T16:43:32.280Z,7.03
2019-02-24T16:46:03.055Z,6.80
2019-02-24T16:48:33.910Z,6.03
2019-02-24T16:51:04.668Z,7.20
2019-02-24T16:53:35.457Z,7.00
2019-02-24T16:56:06.309Z,7.33
2019-02-24T16:58:37.074Z,5.87
2019-02-24T17:01:07.844Z,9.60
2019-02-24T17:03:38.649Z,8.07
2019-02-24T17:06:09.465Z,9.57
2019-02-24T17:08:40.266Z,8.47
2019-02-24T17:11:11.062Z,8.00
2019-02-24T17:13:42.373Z,9.23
2019-02-24T17:16:13.183Z,7.65
2019-02-24T17:18:43.998Z,7.50
2019-02-24T17:21:14.801Z,6.83
2019-02-24T17:23:49.863Z,8.00
2019-02-24T17:26:18.360Z,7.12
2019-02-24T17:28:49.168Z,7.30
2019-02-24T17:31:28.068Z,7.50
2019-02-24T17:33:52.690Z,6.03
2019-02-24T17:36:23.494Z,5.83
2019-02-24T17:38:54.324Z,6.60
2019-02-24T17:41:25.133Z,6.40
2019-02-24T17:43:55.953Z,5.73
2019-02-24T17:46:26.755Z,6.73
2019-02-24T17:48:57.585Z,8.13
2019-02-24T17:51:28.369Z,8.73
2019-02-24T17:53:59.204Z,7.67
2019-02-24T17:56:30.013Z,8.57
2019-02-24T17:59:01.013Z,8.23
2019-02-24T18:01:31.833Z,8.73
2019-02-24T18:04:02.738Z,10.40
2019-02-24T18:06:33.548Z,9.13
2019-02-24T18:09:04.963Z,8.90
2019-02-24T18:11:35.776Z,13.08
2019-02-24T18:14:06.648Z,13.10
2019-02-24T18:16:37.413Z,12.47
2019-02-24T18:19:08.224Z,12.67
2019-02-24T18:21:39.022Z,11.90
2019-02-24T18:24:09.845Z,11.70
2019-02-24T18:26:40.653Z,14.40
2019-02-24T18:29:11.735Z,10.80
2019-02-24T18:31:42.545Z,15.63
2019-02-24T18:34:13.353Z,12.83
2019-02-24T18:36:44.161Z,11.43
2019-02-24T18:39:14.983Z,12.40
2019-02-24T18:41:45.742Z,9.83
2019-02-24T18:44:16.904Z,10.70
2019-02-24T18:46:47.710Z,10.58
2019-02-24T18:49:18.535Z,11.47
2019-02-24T18:51:49.284Z,13.57
2019-02-24T18:54:20.059Z,11.33
2019-02-24T18:56:50.890Z,9.97
2019-02-24T18:59:21.707Z,11.00
2019-02-24T19:01:52.517Z,10.47
2019-02-24T19:04:23.466Z,9.03
2019-02-24T19:06:54.619Z,11.30
2019-02-24T19:09:25.511Z,9.70
2019-02-24T19:11:56.293Z,14.23
2019-02-24T19:14:27.050Z,10.03
2019-02-24T19:16:57.854Z,10.33
2019-02-24T19:19:28.667Z,8.90
2019-02-24T19:21:59.535Z,8.70
2019-02-24T19:24:30.364Z,11.80
2019-02-24T19:27:01.161Z,10.23
2019-02-24T19:29:31.923Z,12.30
2019-02-24T19:32:02.686Z,9.33
2019-02-24T19:34:33.440Z,8.80
2019-02-24T19:37:04.239Z,9.53
2019-02-24T19:39:35.120Z,14.73
2019-02-24T19:42:05.885Z,9.83
2019-02-24T19:44:36.743Z,9.70
2019-02-24T19:47:07.504Z,13.03
2019-02-24T19:49:38.262Z,11.17
2019-02-24T19:52:09.025Z,11.57
2019-02-24T19:54:39.880Z,12.27
2019-02-24T19:57:10.646Z,10.33
2019-02-24T19:59:41.404Z,14.80
2019-02-24T20:02:12.182Z,15.10
2019-02-24T20:04:42.954Z,16.33
2019-02-24T20:07:13.766Z,12.53
2019-02-24T20:09:44.541Z,12.63
2019-02-24T20:12:15.310Z,15.30
2019-02-24T20:14:46.093Z,14.00
2019-02-24T20:17:16.858Z,11.63
2019-02-24T20:19:47.632Z,12.50
2019-02-24T20:22:18.417Z,17.80
2019-02-24T20:24:49.170Z,10.57
2019-02-24T20:27:19.940Z,14.63
2019-02-24T20:29:50.697Z,12.33
2019-02-24T20:32:21.463Z,15.20
2019-02-24T20:34:52.243Z,12.73
2019-02-24T20:37:23.013Z,17.83
2019-02-24T20:39:53.771Z,20.70
2019-02-24T20:42:24.534Z,12.00
2019-02-24T20:44:55.328Z,16.07
2019-02-24T20:47:26.107Z,15.07
2019-02-24T20:49:56.863Z,15.10
2019-02-24T20:52:27.664Z,16.20
2019-02-24T20:54:58.484Z,15.07
2019-02-24T20:57:29.315Z,14.40
2019-02-24T21:00:00.228Z,18.10
2019-02-24T21:02:31.166Z,16.42
2019-02-24T21:05:02.872Z,13.37
2019-02-24T21:07:33.682Z,23.95
2019-02-24T21:10:07.798Z,17.47
2019-02-24T21:12:38.614Z,16.70
2019-02-24T21:15:13.992Z,18.20
2019-02-24T21:17:44.821Z,15.80
2019-02-24T21:20:17.904Z,14.87
2019-02-24T21:22:50.487Z,15.38
2019-02-24T21:25:21.498Z,14.60
2019-02-24T21:27:52.328Z,17.57
2019-02-24T21:30:23.481Z,21.97
2019-02-24T21:32:54.331Z,17.50
2019-02-24T21:35:25.147Z,16.07
2019-02-24T21:37:55.990Z,20.43
2019-02-24T21:40:26.822Z,14.60
2019-02-24T21:42:57.657Z,19.80
2019-02-24T21:45:28.579Z,17.70
2019-02-24T21:47:59.392Z,14.63
2019-02-24T21:50:30.406Z,15.50
2019-02-24T21:53:01.233Z,16.32
2019-02-24T21:55:32.055Z,20.17
2019-02-24T21:58:04.388Z,18.47
2019-02-24T22:00:36.098Z,17.20
2019-02-24T22:03:06.911Z,15.95
2019-02-24T22:05:37.721Z,16.43
2019-02-24T22:08:08.537Z,20.70
2019-02-24T22:10:39.353Z,22.33
2019-02-24T22:13:10.169Z,19.23
2019-02-24T22:15:40.964Z,20.03
2019-02-24T22:18:11.772Z,18.20
2019-02-24T22:20:42.578Z,22.57
2019-02-24T22:23:13.390Z,18.87
2019-02-24T22:25:44.208Z,17.10
2019-02-24T22:28:15.034Z,17.03
2019-02-24T22:30:45.839Z,16.23
2019-02-24T22:33:16.649Z,17.00
2019-02-24T22:35:47.444Z,12.40
2019-02-24T22:38:18.251Z,16.90
2019-02-24T22:40:54.405Z,17.30
2019-02-24T22:43:21.783Z,14.75
2019-02-24T22:45:52.574Z,13.80
2019-02-24T22:48:23.371Z,13.73
2019-02-24T22:50:54.196Z,14.97
2019-02-24T22:53:25.019Z,20.57
2019-02-24T22:55:55.834Z,17.73
2019-02-24T22:58:26.640Z,16.07
2019-02-24T23:01:01.076Z,12.40
2019-02-24T23:03:33.591Z,15.40
2019-02-24T23:06:04.645Z,14.83
2019-02-24T23:08:35.419Z,13.32
2019-02-24T23:11:06.278Z,14.17
2019-02-24T23:13:39.259Z,13.07
2019-02-24T23:16:09.806Z,12.50
2019-02-24T23:18:40.628Z,18.93
2019-02-24T23:21:11.440Z,13.20
2019-02-24T23:23:42.255Z,15.40
2019-02-24T23:26:13.075Z,11.60
2019-02-24T23:28:43.888Z,11.43
2019-02-24T23:31:14.778Z,14.43
2019-02-24T23:33:45.606Z,12.47
2019-02-24T23:36:16.400Z,15.27
2019-02-24T23:38:47.211Z,17.40
2019-02-24T23:41:18.006Z,11.20
2019-02-24T23:43:48.858Z,12.73
2019-02-24T23:46:19.657Z,14.90
2019-02-24T23:48:50.474Z,11.43
2019-02-24T23:51:21.279Z,12.67
2019-02-24T23:53:52.108Z,12.37
2019-02-24T23:56:22.905Z,10.90
2019-02-24T23:58:53.733Z,15.10
